createdAt,value
2023-01-12T00:01:38.187Z,9.42
2023-01-12T00:04:06.453Z,9.42
2023-01-12T00:06:35.599Z,9.45
2023-01-12T00:09:06.395Z,9.50
2023-01-12T00:11:34.397Z,9.50
2023-01-12T00:14:02.294Z,9.47
2023-01-12T00:16:37.409Z,9.45
2023-01-12T00:19:10.835Z,9.44
2023-01-12T00:21:56.375Z,9.44
2023-01-12T00:24:25.637Z,9.40
2023-01-12T00:26:53.807Z,9.36
2023-01-12T00:29:22.061Z,9.37
2023-01-12T00:31:49.944Z,9.36
2023-01-12T00:34:17.962Z,9.37
2023-01-12T00:36:47.977Z,9.35
2023-01-12T00:39:16.859Z,9.35
2023-01-12T00:42:02.171Z,9.31
2023-01-12T00:44:47.324Z,9.31
2023-01-12T00:47:15.699Z,9.28
2023-01-12T00:49:43.781Z,9.29
2023-01-12T00:52:21.630Z,9.30
2023-01-12T00:54:57.553Z,9.32
2023-01-12T00:57:25.375Z,9.28
2023-01-12T00:59:55.172Z,9.29
2023-01-12T01:02:23.474Z,9.27
2023-01-12T01:04:51.349Z,9.26
2023-01-12T01:07:21.487Z,9.19
2023-01-12T01:09:49.297Z,9.21
2023-01-12T01:12:17.041Z,9.17
2023-01-12T01:14:44.802Z,9.19
2023-01-12T01:17:12.476Z,9.22
2023-01-12T01:19:40.175Z,9.19
2023-01-12T01:22:07.905Z,9.19
2023-01-12T01:24:36.963Z,9.22
2023-01-12T01:27:04.755Z,9.24
2023-01-12T01:29:32.391Z,9.26
2023-01-12T01:32:00.022Z,9.30
2023-01-12T01:34:27.749Z,9.33
2023-01-12T01:36:55.482Z,9.32
2023-01-12T01:39:23.231Z,9.36
2023-01-12T01:41:52.665Z,9.35
2023-01-12T01:44:52.250Z,9.36
2023-01-12T01:47:26.972Z,9.34
2023-01-12T01:49:55.991Z,9.33
2023-01-12T01:52:27.117Z,9.33
2023-01-12T01:54:56.582Z,9.39
2023-01-12T01:57:27.881Z,9.43
2023-01-12T01:59:56.866Z,9.44
2023-01-12T02:02:26.294Z,9.44
2023-01-12T02:04:54.295Z,9.44
2023-01-12T02:07:22.076Z,9.44
2023-01-12T02:09:49.774Z,9.47
2023-01-12T02:12:35.003Z,9.48
2023-01-12T02:15:21.650Z,9.45
2023-01-12T02:17:57.976Z,9.48
2023-01-12T02:21:01.443Z,9.50
2023-01-12T02:23:51.031Z,9.46
2023-01-12T02:26:44.870Z,9.45
2023-01-12T02:29:45.142Z,9.47
2023-01-12T02:32:21.088Z,9.50
2023-01-12T02:34:55.328Z,9.49
2023-01-12T02:37:29.870Z,9.52
2023-01-12T02:40:00.811Z,9.52
2023-01-12T02:42:44.059Z,9.48
2023-01-12T02:45:25.564Z,9.51
2023-01-12T02:47:57.965Z,9.50
2023-01-12T02:50:30.933Z,9.50
2023-01-12T02:53:04.216Z,9.53
2023-01-12T02:55:32.367Z,9.54
2023-01-12T02:58:01.313Z,9.54
2023-01-12T03:00:29.570Z,9.53
2023-01-12T03:02:58.703Z,9.52
2023-01-12T03:05:26.369Z,9.52
2023-01-12T03:07:55.576Z,9.51
2023-01-12T03:10:41.570Z,9.51
2023-01-12T03:13:11.679Z,9.52
2023-01-12T03:15:41.780Z,9.51
2023-01-12T03:18:16.046Z,9.49
2023-01-12T03:20:48.463Z,9.51
2023-01-12T03:23:19.934Z,9.50
2023-01-12T03:25:48.253Z,9.48
2023-01-12T03:28:18.312Z,9.48
2023-01-12T03:30:48.039Z,9.51
2023-01-12T03:33:17.216Z,9.48
2023-01-12T03:35:51.714Z,9.48
2023-01-12T03:38:23.310Z,9.52
2023-01-12T03:40:54.176Z,9.53
2023-01-12T03:43:25.390Z,9.53
2023-01-12T03:45:58.659Z,9.51
2023-01-12T03:48:31.865Z,9.54
2023-01-12T03:51:01.863Z,9.50
2023-01-12T03:53:30.868Z,9.47
2023-01-12T03:56:02.005Z,9.46
2023-01-12T03:58:29.742Z,9.48
2023-01-12T04:00:57.544Z,9.47
2023-01-12T04:03:25.287Z,9.51
2023-01-12T04:05:54.552Z,9.52
2023-01-12T04:08:22.255Z,9.56
2023-01-12T04:10:49.987Z,9.55
2023-01-12T04:13:17.662Z,9.55
2023-01-12T04:15:45.441Z,9.55
2023-01-12T04:18:13.820Z,9.53
2023-01-12T04:20:41.710Z,9.51
2023-01-12T04:23:09.770Z,9.51
2023-01-12T04:25:37.672Z,9.54
2023-01-12T04:28:05.633Z,9.54
2023-01-12T04:30:34.500Z,9.54
2023-01-12T04:33:08.031Z,9.51
2023-01-12T04:35:35.825Z,9.52
2023-01-12T04:38:06.877Z,9.54
2023-01-12T04:40:36.031Z,9.55
2023-01-12T04:43:07.308Z,9.54
2023-01-12T04:45:37.397Z,9.47
2023-01-12T04:48:06.365Z,9.52
2023-01-12T04:50:34.146Z,9.48
2023-01-12T04:53:03.397Z,9.48
2023-01-12T04:55:31.330Z,9.46
2023-01-12T04:58:00.338Z,9.44
2023-01-12T05:00:28.565Z,9.43
2023-01-12T05:02:59.217Z,9.44
2023-01-12T05:05:26.954Z,9.46
2023-01-12T05:08:11.543Z,9.41
2023-01-12T05:10:39.265Z,9.42
2023-01-12T05:13:08.273Z,9.39
2023-01-12T05:15:35.942Z,9.40
2023-01-12T05:18:03.563Z,9.39
2023-01-12T05:20:31.176Z,9.38
2023-01-12T05:22:58.818Z,9.38
2023-01-12T05:25:26.801Z,9.36
2023-01-12T05:27:55.912Z,9.39
2023-01-12T05:30:25.108Z,9.39
2023-01-12T05:32:53.008Z,9.39
2023-01-12T05:35:20.790Z,9.40
2023-01-12T05:37:48.511Z,9.40
2023-01-12T05:40:16.619Z,9.39
2023-01-12T05:43:01.931Z,9.38
2023-01-12T05:45:30.953Z,9.39
2023-01-12T05:47:59.378Z,9.39
2023-01-12T05:50:27.333Z,9.39
2023-01-12T05:52:55.720Z,9.39
2023-01-12T05:55:23.429Z,9.40
2023-01-12T05:57:51.197Z,9.38
2023-01-12T06:00:19.934Z,9.38
2023-01-12T06:02:49.107Z,9.42
2023-01-12T06:05:17.044Z,9.42
2023-01-12T06:07:44.749Z,9.41
2023-01-12T06:10:13.185Z,9.43
2023-01-12T06:12:57.429Z,9.41
2023-01-12T06:15:25.121Z,9.43
2023-01-12T06:17:54.203Z,9.44
2023-01-12T06:20:21.919Z,9.44
2023-01-12T06:22:49.617Z,9.48
2023-01-12T06:25:17.529Z,9.51
2023-01-12T06:27:45.324Z,9.52
2023-01-12T06:30:13.835Z,9.53
2023-01-12T06:32:41.880Z,9.56
2023-01-12T06:35:19.119Z,9.58
2023-01-12T06:37:47.835Z,9.55
2023-01-12T06:40:15.776Z,9.61
2023-01-12T06:42:43.526Z,9.61
2023-01-12T06:45:12.360Z,9.61
2023-01-12T06:47:46.022Z,9.62
2023-01-12T06:50:15.248Z,9.62
2023-01-12T06:52:43.027Z,9.63
2023-01-12T06:55:11.037Z,9.68
2023-01-12T06:57:38.701Z,9.70
2023-01-12T07:00:07.918Z,9.70
2023-01-12T07:02:35.667Z,9.70
2023-01-12T07:05:03.365Z,9.71
2023-01-12T07:07:32.566Z,9.72
2023-01-12T07:10:00.219Z,9.71
2023-01-12T07:12:27.837Z,9.70
2023-01-12T07:14:56.201Z,9.71
2023-01-12T07:17:23.884Z,9.71
2023-01-12T07:19:51.672Z,9.73
2023-01-12T07:22:19.374Z,9.73
2023-01-12T07:24:48.554Z,9.75
2023-01-12T07:27:16.253Z,9.77
2023-01-12T07:29:43.976Z,9.79
2023-01-12T07:32:11.721Z,9.80
2023-01-12T07:34:39.362Z,9.82
2023-01-12T07:37:07.683Z,9.81
2023-01-12T07:39:35.353Z,9.84
2023-01-12T07:42:21.731Z,9.85
2023-01-12T07:44:49.447Z,9.89
2023-01-12T07:47:17.159Z,9.90
2023-01-12T07:49:44.888Z,9.90
2023-01-12T07:52:12.938Z,9.90
2023-01-12T07:54:40.851Z,9.90
2023-01-12T07:57:10.640Z,9.91
2023-01-12T07:59:38.447Z,9.90
2023-01-12T08:02:06.794Z,9.93
2023-01-12T08:04:34.613Z,9.95
2023-01-12T08:07:02.359Z,9.96
2023-01-12T08:09:30.344Z,9.93
2023-01-12T08:11:58.052Z,9.96
2023-01-12T08:14:30.380Z,9.96
2023-01-12T08:17:01.644Z,9.96
2023-01-12T08:19:32.933Z,9.94
2023-01-12T08:22:03.068Z,9.98
2023-01-12T08:24:34.855Z,9.98
2023-01-12T08:27:04.848Z,10.03
2023-01-12T08:29:39.947Z,10.06
2023-01-12T08:34:37.622Z,10.09
2023-01-12T08:37:07.354Z,10.10
2023-01-12T08:39:35.634Z,10.09
2023-01-12T08:42:03.616Z,10.11
2023-01-12T08:44:33.917Z,10.14
2023-01-12T08:47:04.434Z,10.14
2023-01-12T08:49:33.185Z,10.13
2023-01-12T08:52:01.295Z,10.16
2023-01-12T08:54:29.134Z,10.14
2023-01-12T08:56:56.893Z,10.17
2023-01-12T08:59:25.551Z,10.16
2023-01-12T09:01:53.340Z,10.21
2023-01-12T09:04:22.461Z,10.24
2023-01-12T09:06:50.114Z,10.25
2023-01-12T09:09:19.983Z,10.28
2023-01-12T09:11:48.870Z,10.31
2023-01-12T09:14:17.202Z,10.27
2023-01-12T09:16:45.063Z,10.29
2023-01-12T09:19:12.986Z,10.32
2023-01-12T09:21:43.633Z,10.33
2023-01-12T09:24:11.948Z,10.36
2023-01-12T09:26:40.782Z,10.36
2023-01-12T09:29:08.932Z,10.37
2023-01-12T09:31:37.716Z,10.39
2023-01-12T09:34:05.513Z,10.43
2023-01-12T09:36:34.803Z,10.46
2023-01-12T09:39:04.418Z,10.44
2023-01-12T09:41:51.087Z,10.47
2023-01-12T09:44:38.187Z,10.50
2023-01-12T09:47:09.991Z,10.51
2023-01-12T09:49:40.743Z,10.49
2023-01-12T09:52:14.616Z,10.56
2023-01-12T09:54:43.884Z,10.60
2023-01-12T09:57:28.991Z,10.57
2023-01-12T09:59:59.509Z,10.61
2023-01-12T10:02:27.801Z,10.61
2023-01-12T10:04:57.318Z,10.64
2023-01-12T10:07:25.057Z,10.66
2023-01-12T10:09:54.362Z,10.61
2023-01-12T10:12:27.155Z,10.60
2023-01-12T10:15:09.858Z,10.66
2023-01-12T10:17:51.436Z,10.62
2023-01-12T10:20:24.924Z,10.69
2023-01-12T10:22:54.768Z,10.70
2023-01-12T10:25:32.239Z,10.72
2023-01-12T10:28:01.668Z,10.71
2023-01-12T10:30:31.738Z,10.70
2023-01-12T10:33:00.036Z,10.73
2023-01-12T10:35:27.795Z,10.75
2023-01-12T10:37:56.773Z,10.77
2023-01-12T10:40:29.060Z,10.78
2023-01-12T10:43:23.892Z,10.82
2023-01-12T10:46:13.302Z,10.80
2023-01-12T10:48:43.719Z,10.78
2023-01-12T10:51:24.264Z,10.73
2023-01-12T10:53:54.418Z,10.82
2023-01-12T10:56:29.331Z,10.82
2023-01-12T10:59:00.740Z,10.83
2023-01-12T11:01:44.070Z,10.87
2023-01-12T11:04:15.392Z,10.91
2023-01-12T11:06:44.595Z,10.93
2023-01-12T11:09:20.443Z,10.91
2023-01-12T11:11:54.537Z,10.95
2023-01-12T11:14:27.721Z,10.96
2023-01-12T11:17:00.907Z,10.97
2023-01-12T11:19:30.959Z,10.96
2023-01-12T11:22:05.041Z,10.97
2023-01-12T11:24:37.218Z,10.97
2023-01-12T11:27:14.426Z,10.98
2023-01-12T11:29:46.866Z,10.98
2023-01-12T11:32:19.379Z,10.98
2023-01-12T11:34:55.826Z,10.99
2023-01-12T11:37:24.164Z,10.98
2023-01-12T11:39:54.895Z,10.99
2023-01-12T11:42:44.007Z,11.02
2023-01-12T11:45:15.283Z,11.03
2023-01-12T11:47:48.416Z,11.01
2023-01-12T11:50:18.479Z,11.05
2023-01-12T11:52:46.593Z,11.07
2023-01-12T11:55:16.031Z,11.10
2023-01-12T11:57:52.236Z,11.11
2023-01-12T12:00:30.418Z,11.13
2023-01-12T12:03:10.573Z,11.12
2023-01-12T12:05:43.888Z,11.17
2023-01-12T12:08:21.003Z,11.17
2023-01-12T12:10:53.295Z,11.17
2023-01-12T12:13:29.386Z,11.14
2023-01-12T12:16:14.032Z,11.13
2023-01-12T12:18:52.250Z,11.11
2023-01-12T12:21:34.667Z,11.12
2023-01-12T12:24:10.251Z,11.11
2023-01-12T12:26:40.701Z,11.10
2023-01-12T12:29:25.345Z,11.13
2023-01-12T12:32:05.676Z,11.13
2023-01-12T12:34:51.266Z,11.12
2023-01-12T12:37:22.654Z,11.14
2023-01-12T12:39:57.182Z,11.13
2023-01-12T12:43:00.948Z,11.16
2023-01-12T12:45:38.591Z,11.17
2023-01-12T12:48:11.017Z,11.18
2023-01-12T12:50:42.215Z,11.19
2023-01-12T12:53:16.097Z,11.19
2023-01-12T12:55:44.943Z,11.21
2023-01-12T12:58:28.880Z,11.23
2023-01-12T13:01:45.026Z,11.23
2023-01-12T13:04:14.575Z,11.21
2023-01-12T13:06:47.036Z,11.17
2023-01-12T13:09:37.361Z,11.20
2023-01-12T13:12:23.378Z,11.20
2023-01-12T13:15:23.659Z,11.21
2023-01-12T13:17:53.897Z,11.22
2023-01-12T13:20:43.833Z,11.23
2023-01-12T13:23:43.267Z,11.23
2023-01-12T13:26:37.985Z,11.23
2023-01-12T13:29:40.503Z,11.23
2023-01-12T13:32:44.894Z,11.24
2023-01-12T13:35:57.617Z,11.27
2023-01-12T13:38:38.425Z,11.26
2023-01-12T13:41:17.800Z,11.22
2023-01-12T13:43:51.300Z,11.27
2023-01-12T13:46:21.535Z,11.27
2023-01-12T13:48:51.063Z,11.25
2023-01-12T13:51:22.319Z,11.25
2023-01-12T13:54:00.218Z,11.27
2023-01-12T13:56:28.148Z,11.28
2023-01-12T13:59:01.813Z,11.28
2023-01-12T14:01:33.932Z,11.28
2023-01-12T14:04:20.365Z,11.28
2023-01-12T14:06:58.882Z,11.31
2023-01-12T14:09:35.993Z,11.28
2023-01-12T14:12:25.101Z,11.29
2023-01-12T14:15:30.364Z,11.26
2023-01-12T14:18:04.115Z,11.25
2023-01-12T14:20:32.072Z,11.27
2023-01-12T14:23:17.979Z,11.26
2023-01-12T14:25:47.551Z,11.25
2023-01-12T14:28:18.488Z,11.26
2023-01-12T14:30:48.882Z,11.26
2023-01-12T14:33:21.524Z,11.24
2023-01-12T14:35:52.149Z,11.22
2023-01-12T14:38:21.899Z,11.23
2023-01-12T14:40:54.519Z,11.25
2023-01-12T14:43:39.658Z,11.25
2023-01-12T14:46:25.300Z,11.26
2023-01-12T14:49:01.640Z,11.28
2023-01-12T14:51:33.945Z,11.31
2023-01-12T14:54:15.967Z,11.29
2023-01-12T14:56:50.379Z,11.28
2023-01-12T14:59:22.703Z,11.26
2023-01-12T15:01:51.267Z,11.27
2023-01-12T15:04:21.016Z,11.26
2023-01-12T15:06:49.108Z,11.24
2023-01-12T15:09:29.177Z,11.22
2023-01-12T15:11:58.445Z,11.23
2023-01-12T15:14:29.061Z,11.23
2023-01-12T15:17:14.161Z,11.21
2023-01-12T15:19:59.413Z,11.20
2023-01-12T15:22:46.280Z,11.20
2023-01-12T15:25:33.177Z,11.18
2023-01-12T15:28:02.786Z,11.18
2023-01-12T15:30:31.146Z,11.19
2023-01-12T15:32:58.876Z,11.20
2023-01-12T15:35:28.071Z,11.19
2023-01-12T15:37:57.161Z,11.19
2023-01-12T15:40:27.083Z,11.18
2023-01-12T15:42:55.220Z,11.18
2023-01-12T15:45:30.796Z,11.18
2023-01-12T15:47:58.553Z,11.19
2023-01-12T15:50:26.288Z,11.18
2023-01-12T15:52:54.081Z,11.20
2023-01-12T15:55:23.549Z,11.22
2023-01-12T15:57:52.294Z,11.22
2023-01-12T16:00:22.078Z,11.23
2023-01-12T16:02:52.073Z,11.22
2023-01-12T16:05:21.957Z,11.22
2023-01-12T16:07:49.662Z,11.24
2023-01-12T16:10:18.278Z,11.25
2023-01-12T16:12:47.880Z,11.22
2023-01-12T16:15:17.812Z,11.22
2023-01-12T16:17:45.527Z,11.21
2023-01-12T16:20:16.801Z,11.22
2023-01-12T16:22:45.079Z,11.26
2023-01-12T16:25:12.880Z,11.27
2023-01-12T16:27:41.214Z,11.25
2023-01-12T16:30:11.301Z,11.26
2023-01-12T16:32:39.379Z,11.23
2023-01-12T16:35:07.133Z,11.26
2023-01-12T16:37:36.221Z,11.27
2023-01-12T16:40:05.353Z,11.29
2023-01-12T16:42:33.047Z,11.29
2023-01-12T16:45:00.931Z,11.28
2023-01-12T16:47:28.643Z,11.26
2023-01-12T16:49:56.355Z,11.23
2023-01-12T16:52:24.183Z,11.24
2023-01-12T16:54:53.352Z,11.24
2023-01-12T16:57:21.021Z,11.25
2023-01-12T16:59:49.632Z,11.25
2023-01-12T17:02:19.156Z,11.27
2023-01-12T17:04:49.040Z,11.25
2023-01-12T17:07:16.892Z,11.27
2023-01-12T17:09:44.885Z,11.28
2023-01-12T17:12:14.066Z,11.26
2023-01-12T17:14:41.983Z,11.27
2023-01-12T17:17:11.181Z,11.26
2023-01-12T17:19:42.637Z,11.27
2023-01-12T17:22:11.028Z,11.27
2023-01-12T17:24:40.410Z,11.26
2023-01-12T17:27:09.385Z,11.26
2023-01-12T17:29:38.799Z,11.27
2023-01-12T17:32:08.371Z,11.29
2023-01-12T17:34:37.788Z,11.29
2023-01-12T17:37:08.251Z,11.27
2023-01-12T17:39:36.535Z,11.27
2023-01-12T17:42:24.488Z,11.27
2023-01-12T17:44:53.738Z,11.27
2023-01-12T17:47:21.451Z,11.31
2023-01-12T17:49:49.164Z,11.29
2023-01-12T17:52:18.056Z,11.31
2023-01-12T17:54:45.787Z,11.30
2023-01-12T17:57:13.662Z,11.29
2023-01-12T17:59:41.467Z,11.30
2023-01-12T18:02:11.880Z,11.33
2023-01-12T18:04:39.600Z,11.34
2023-01-12T18:07:07.264Z,11.33
2023-01-12T18:09:36.772Z,11.35
2023-01-12T18:12:05.158Z,11.36
2023-01-12T18:14:33.331Z,11.37
2023-01-12T18:17:01.075Z,11.35
2023-01-12T18:19:30.179Z,11.34
2023-01-12T18:21:57.971Z,11.35
2023-01-12T18:24:25.895Z,11.32
2023-01-12T18:26:53.623Z,11.34
2023-01-12T18:29:21.403Z,11.33
2023-01-12T18:31:49.046Z,11.35
2023-01-12T18:34:18.371Z,11.36
2023-01-12T18:36:47.715Z,11.32
2023-01-12T18:39:17.172Z,11.33
2023-01-12T18:42:02.602Z,11.30
2023-01-12T18:44:31.162Z,11.30
2023-01-12T18:47:16.945Z,11.28
2023-01-12T18:49:45.895Z,11.29
2023-01-12T18:52:48.336Z,11.29
2023-01-12T18:55:16.200Z,11.25
2023-01-12T18:57:43.877Z,11.28
2023-01-12T19:00:16.823Z,11.30
2023-01-12T19:02:44.703Z,11.29
2023-01-12T19:05:19.750Z,11.32
2023-01-12T19:08:04.532Z,11.33
2023-01-12T19:10:34.048Z,11.33
2023-01-12T19:13:19.408Z,11.33
2023-01-12T19:16:04.595Z,11.32
2023-01-12T19:18:32.384Z,11.32
2023-01-12T19:21:29.697Z,11.33
2023-01-12T19:24:16.055Z,11.35
2023-01-12T19:27:01.546Z,11.35
2023-01-12T19:29:29.236Z,11.32
2023-01-12T19:31:56.874Z,11.33
2023-01-12T19:34:25.663Z,11.36
2023-01-12T19:36:53.362Z,11.36
2023-01-12T19:39:34.308Z,11.36
2023-01-12T19:42:19.332Z,11.39
2023-01-12T19:44:47.050Z,11.37
2023-01-12T19:47:14.815Z,11.34
2023-01-12T19:49:42.547Z,11.36
2023-01-12T19:52:11.097Z,11.36
2023-01-12T19:54:40.187Z,11.35
2023-01-12T19:57:07.928Z,11.35
2023-01-12T19:59:35.700Z,11.34
2023-01-12T20:02:03.841Z,11.36
2023-01-12T20:04:31.535Z,11.36
2023-01-12T20:06:59.702Z,11.33
2023-01-12T20:09:27.466Z,11.34
2023-01-12T20:11:56.627Z,11.31
2023-01-12T20:14:24.644Z,11.26
2023-01-12T20:16:52.352Z,11.29
2023-01-12T20:19:20.559Z,11.31
2023-01-12T20:21:48.299Z,11.32
2023-01-12T20:24:16.334Z,11.32
2023-01-12T20:26:44.027Z,11.32
2023-01-12T20:29:13.189Z,11.30
2023-01-12T20:31:41.226Z,11.30
2023-01-12T20:34:09.019Z,11.32
2023-01-12T20:36:38.494Z,11.32
2023-01-12T20:39:06.481Z,11.31
2023-01-12T20:41:34.223Z,11.30
2023-01-12T20:44:02.050Z,11.32
2023-01-12T20:46:31.244Z,11.33
2023-01-12T20:48:59.410Z,11.31
2023-01-12T20:51:27.074Z,11.31
2023-01-12T20:53:54.707Z,11.34
2023-01-12T20:56:24.543Z,11.32
2023-01-12T20:58:52.315Z,11.33
2023-01-12T21:01:20.220Z,11.34
2023-01-12T21:03:49.317Z,11.35
2023-01-12T21:06:18.362Z,11.33
2023-01-12T21:08:47.672Z,11.34
2023-01-12T21:11:16.809Z,11.35
2023-01-12T21:13:44.897Z,11.36
2023-01-12T21:16:14.491Z,11.33
2023-01-12T21:18:42.914Z,11.29
2023-01-12T21:21:12.527Z,11.28
2023-01-12T21:23:40.184Z,11.29
2023-01-12T21:26:08.470Z,11.27
2023-01-12T21:28:38.407Z,11.26
2023-01-12T21:31:08.368Z,11.19
2023-01-12T21:33:36.526Z,11.25
2023-01-12T21:36:05.217Z,11.27
2023-01-12T21:38:34.406Z,11.26
2023-01-12T21:41:03.393Z,11.28
2023-01-12T21:43:31.279Z,11.26
2023-01-12T21:46:04.941Z,11.26
2023-01-12T21:48:32.817Z,11.26
2023-01-12T21:51:04.621Z,11.24
2023-01-12T21:53:32.343Z,11.24
2023-01-12T21:56:03.156Z,11.26
2023-01-12T21:58:33.175Z,11.26
2023-01-12T22:01:01.308Z,11.28
2023-01-12T22:03:29.835Z,11.27
2023-01-12T22:05:58.101Z,11.29
2023-01-12T22:08:25.846Z,11.28
2023-01-12T22:10:53.666Z,11.27
2023-01-12T22:13:22.833Z,11.27
2023-01-12T22:15:52.127Z,11.28
2023-01-12T22:18:20.911Z,11.29
2023-01-12T22:20:49.519Z,11.30
2023-01-12T22:23:17.190Z,11.31
2023-01-12T22:25:44.863Z,11.32
2023-01-12T22:28:12.561Z,11.33
2023-01-12T22:30:43.137Z,11.30
2023-01-12T22:33:11.722Z,11.31
2023-01-12T22:35:39.588Z,11.32
2023-01-12T22:38:07.314Z,11.32
2023-01-12T22:40:35.050Z,11.27
2023-01-12T22:43:20.403Z,11.26
2023-01-12T22:45:50.617Z,11.26
2023-01-12T22:48:18.350Z,11.25
2023-01-12T22:50:47.437Z,11.24
2023-01-12T22:53:15.227Z,11.23
2023-01-12T22:55:43.005Z,11.24
2023-01-12T22:58:10.747Z,11.28
2023-01-12T23:00:39.728Z,11.27
2023-01-12T23:03:10.805Z,11.29
2023-01-12T23:05:45.708Z,11.31
2023-01-12T23:08:14.420Z,11.28
2023-01-12T23:10:42.385Z,11.27
2023-01-12T23:13:18.892Z,11.25
2023-01-12T23:15:48.475Z,11.22
2023-01-12T23:18:18.886Z,11.22
2023-01-12T23:20:47.251Z,11.22
2023-01-12T23:23:17.548Z,11.20
2023-01-12T23:25:45.825Z,11.21
2023-01-12T23:28:14.132Z,11.16
2023-01-12T23:30:43.400Z,11.11
2023-01-12T23:33:11.423Z,11.09
2023-01-12T23:35:41.894Z,11.07
2023-01-12T23:38:15.248Z,11.02
2023-01-12T23:40:43.039Z,10.98
2023-01-12T23:43:10.668Z,11.00
2023-01-12T23:45:38.383Z,10.97
2023-01-12T23:48:07.799Z,10.98
2023-01-12T23:50:35.585Z,10.96
2023-01-12T23:53:04.751Z,10.95
2023-01-12T23:55:32.410Z,10.95
2023-01-12T23:58:00.071Z,10.95
